createdAt,value
2023-05-04T00:00:20.170Z,3.67
2023-05-04T00:02:47.202Z,3.75
2023-05-04T00:05:14.102Z,6.30
2023-05-04T00:07:41.040Z,4.70
2023-05-04T00:10:08.458Z,2.92
2023-05-04T00:12:35.790Z,3.38
2023-05-04T00:15:02.853Z,3.67
2023-05-04T00:17:29.783Z,4.57
2023-05-04T00:19:56.826Z,3.63
2023-05-04T00:22:23.670Z,5.00
2023-05-04T00:24:50.526Z,4.80
2023-05-04T00:27:17.372Z,3.78
2023-05-04T00:29:44.260Z,5.25
2023-05-04T00:32:11.261Z,3.10
2023-05-04T00:34:38.084Z,5.07
2023-05-04T00:37:04.973Z,3.58
2023-05-04T00:39:31.866Z,3.63
2023-05-04T00:41:58.703Z,3.58
2023-05-04T00:44:25.554Z,4.03
2023-05-04T00:46:53.337Z,4.55
2023-05-04T00:49:21.840Z,4.07
2023-05-04T00:51:50.549Z,3.53
2023-05-04T00:54:20.755Z,4.10
2023-05-04T00:56:48.279Z,6.00
2023-05-04T00:59:15.160Z,4.72
2023-05-04T01:01:42.544Z,4.70
2023-05-04T01:04:09.913Z,4.20
2023-05-04T01:06:50.979Z,3.25
2023-05-04T01:09:47.542Z,3.20
2023-05-04T01:12:41.846Z,4.10
2023-05-04T01:15:13.187Z,3.55
2023-05-04T01:17:40.437Z,4.72
2023-05-04T01:20:09.652Z,4.35
2023-05-04T01:22:39.603Z,3.22
2023-05-04T01:25:08.054Z,7.03
2023-05-04T01:28:10.734Z,3.92
2023-05-04T01:30:44.835Z,4.70
2023-05-04T01:33:12.928Z,7.95
2023-05-04T01:35:40.221Z,4.22
2023-05-04T01:38:07.156Z,4.22
2023-05-04T01:40:34.298Z,6.57
2023-05-04T01:43:01.394Z,5.97
2023-05-04T01:45:28.232Z,3.88
2023-05-04T01:47:55.228Z,3.55
2023-05-04T01:50:22.191Z,3.92
2023-05-04T01:52:49.056Z,6.57
2023-05-04T01:55:16.020Z,5.22
2023-05-04T01:57:42.889Z,4.00
2023-05-04T02:00:10.542Z,4.50
2023-05-04T02:02:37.424Z,9.32
2023-05-04T02:05:04.633Z,4.05
2023-05-04T02:07:31.535Z,5.15
2023-05-04T02:09:58.380Z,5.03
2023-05-04T02:12:25.485Z,4.03
2023-05-04T02:14:52.295Z,4.00
2023-05-04T02:17:19.146Z,5.07
2023-05-04T02:19:45.987Z,6.28
2023-05-04T02:22:12.810Z,5.32
2023-05-04T02:24:40.999Z,5.90
2023-05-04T02:27:07.824Z,3.50
2023-05-04T02:29:34.633Z,5.00
2023-05-04T02:32:01.556Z,4.05
2023-05-04T02:34:28.455Z,4.22
2023-05-04T02:36:55.302Z,4.28
2023-05-04T02:39:22.452Z,10.57
2023-05-04T02:41:49.348Z,3.17
2023-05-04T02:44:16.210Z,4.40
2023-05-04T02:46:43.088Z,4.80
2023-05-04T02:49:09.910Z,6.18
2023-05-04T02:51:36.802Z,5.15
2023-05-04T02:54:03.800Z,5.07
2023-05-04T02:56:30.695Z,4.18
2023-05-04T02:58:57.538Z,5.57
2023-05-04T03:01:24.442Z,3.53
2023-05-04T03:03:51.390Z,4.78
2023-05-04T03:06:18.252Z,3.88
2023-05-04T03:08:45.099Z,5.75
2023-05-04T03:11:11.943Z,5.32
2023-05-04T03:13:38.757Z,3.97
2023-05-04T03:16:05.964Z,3.63
2023-05-04T03:18:38.570Z,5.82
2023-05-04T03:21:05.626Z,4.18
2023-05-04T03:23:32.489Z,3.72
2023-05-04T03:25:59.320Z,5.90
2023-05-04T03:28:26.160Z,9.73
2023-05-04T03:30:53.036Z,5.65
2023-05-04T03:33:19.872Z,3.22
2023-05-04T03:35:46.694Z,5.82
2023-05-04T03:38:13.724Z,5.38
2023-05-04T03:40:40.545Z,5.20
2023-05-04T03:43:07.489Z,5.75
2023-05-04T03:45:34.587Z,4.05
2023-05-04T03:48:01.428Z,4.25
2023-05-04T03:50:28.326Z,5.28
2023-05-04T03:52:55.225Z,3.97
2023-05-04T03:55:22.160Z,6.20
2023-05-04T03:57:48.974Z,7.10
2023-05-04T04:00:16.798Z,4.65
2023-05-04T04:02:43.769Z,4.57
2023-05-04T04:05:10.750Z,5.78
2023-05-04T04:07:37.585Z,5.15
2023-05-04T04:10:05.154Z,6.05
2023-05-04T04:12:32.310Z,4.03
2023-05-04T04:14:59.264Z,4.82
2023-05-04T04:17:26.151Z,13.85
2023-05-04T04:19:53.040Z,6.00
2023-05-04T04:22:19.862Z,5.78
2023-05-04T04:24:46.712Z,6.15
2023-05-04T04:27:13.777Z,9.95
2023-05-04T04:29:40.631Z,7.40
2023-05-04T04:32:07.451Z,5.45
2023-05-04T04:34:34.508Z,6.95
2023-05-04T04:37:01.333Z,4.82
2023-05-04T04:39:28.205Z,6.30
2023-05-04T04:41:55.107Z,6.00
2023-05-04T04:44:22.034Z,7.40
2023-05-04T04:46:49.496Z,7.05
2023-05-04T04:49:18.061Z,5.68
2023-05-04T04:51:45.018Z,6.68
2023-05-04T04:54:11.939Z,7.60
2023-05-04T04:56:41.946Z,6.78
2023-05-04T04:59:08.783Z,7.53
2023-05-04T05:01:35.665Z,6.45
2023-05-04T05:04:02.516Z,7.80
2023-05-04T05:06:29.395Z,8.90
2023-05-04T05:08:56.727Z,5.82
2023-05-04T05:11:23.614Z,7.13
2023-05-04T05:13:50.780Z,5.82
2023-05-04T05:16:17.716Z,5.38
2023-05-04T05:18:44.655Z,7.30
2023-05-04T05:21:11.605Z,7.88
2023-05-04T05:23:38.454Z,7.95
2023-05-04T05:26:05.350Z,6.63
2023-05-04T05:28:32.452Z,11.70
2023-05-04T05:30:59.431Z,6.32
2023-05-04T05:33:26.358Z,8.32
2023-05-04T05:35:53.210Z,6.30
2023-05-04T05:38:20.354Z,6.30
2023-05-04T05:40:48.881Z,7.22
2023-05-04T05:43:15.911Z,7.82
2023-05-04T05:45:42.810Z,8.27
2023-05-04T05:48:09.676Z,9.27
2023-05-04T05:50:36.517Z,10.85
2023-05-04T05:53:03.443Z,10.68
2023-05-04T05:55:30.279Z,7.15
2023-05-04T05:57:57.157Z,10.57
2023-05-04T06:00:24.876Z,13.27
2023-05-04T06:02:52.783Z,9.77
2023-05-04T06:05:19.770Z,13.45
2023-05-04T06:07:46.718Z,13.95
2023-05-04T06:10:13.948Z,11.38
2023-05-04T06:12:40.909Z,9.65
2023-05-04T06:15:09.501Z,11.63
2023-05-04T06:17:36.496Z,12.77
2023-05-04T06:20:03.869Z,10.93
2023-05-04T06:22:31.681Z,16.00
2023-05-04T06:25:02.724Z,12.30
2023-05-04T06:27:31.961Z,13.57
2023-05-04T06:29:58.915Z,14.18
2023-05-04T06:32:25.994Z,13.52
2023-05-04T06:34:55.636Z,13.73
2023-05-04T06:37:22.731Z,14.50
2023-05-04T06:39:49.612Z,14.65
2023-05-04T06:42:16.510Z,17.48
2023-05-04T06:44:43.535Z,17.85
2023-05-04T06:47:10.502Z,14.40
2023-05-04T06:49:37.363Z,19.00
2023-05-04T06:52:04.395Z,19.85
2023-05-04T06:54:32.094Z,17.45
2023-05-04T06:56:58.987Z,16.85
2023-05-04T06:59:25.863Z,17.02
2023-05-04T07:01:52.798Z,15.27
2023-05-04T07:04:23.554Z,13.32
2023-05-04T07:06:51.219Z,14.85
2023-05-04T07:09:21.341Z,14.15
2023-05-04T07:11:51.229Z,15.38
2023-05-04T07:14:18.083Z,12.38
2023-05-04T07:16:45.037Z,15.27
2023-05-04T07:19:12.055Z,14.18
2023-05-04T07:21:39.008Z,13.57
2023-05-04T07:24:07.223Z,10.60
2023-05-04T07:26:34.140Z,15.23
2023-05-04T07:29:01.193Z,10.50
2023-05-04T07:31:30.190Z,10.40
2023-05-04T07:33:57.669Z,11.13
2023-05-04T07:36:26.766Z,17.02
2023-05-04T07:38:54.682Z,7.93
2023-05-04T07:41:21.700Z,13.82
2023-05-04T07:43:48.564Z,14.68
2023-05-04T07:46:15.599Z,13.35
2023-05-04T07:48:42.442Z,7.70
2023-05-04T07:51:14.432Z,8.68
2023-05-04T07:53:42.668Z,7.75
2023-05-04T07:56:13.727Z,7.68
2023-05-04T07:58:41.577Z,9.07
2023-05-04T08:01:08.642Z,6.75
2023-05-04T08:03:35.598Z,5.70
2023-05-04T08:06:02.699Z,7.20
2023-05-04T08:08:29.727Z,5.00
2023-05-04T08:11:07.968Z,8.07
2023-05-04T08:13:46.511Z,4.43
2023-05-04T08:16:13.453Z,4.78
2023-05-04T08:18:40.367Z,4.57
2023-05-04T08:21:07.247Z,3.95
2023-05-04T08:23:34.148Z,5.18
2023-05-04T08:26:05.035Z,6.18
2023-05-04T08:28:39.708Z,4.07
2023-05-04T08:31:06.842Z,3.53
2023-05-04T08:33:34.637Z,4.00
2023-05-04T08:36:03.041Z,5.15
2023-05-04T08:38:30.247Z,5.68
2023-05-04T08:40:57.797Z,5.38
2023-05-04T08:43:24.794Z,3.65
2023-05-04T08:45:51.792Z,2.75
2023-05-04T08:48:19.125Z,5.53
2023-05-04T08:50:46.316Z,4.20
2023-05-04T08:53:14.625Z,3.25
2023-05-04T08:55:43.573Z,4.97
2023-05-04T08:58:14.622Z,3.80
2023-05-04T09:00:44.187Z,3.83
2023-05-04T09:03:12.243Z,3.55
2023-05-04T09:05:41.702Z,3.50
2023-05-04T09:08:08.753Z,4.22
2023-05-04T09:10:35.647Z,5.22
2023-05-04T09:13:02.716Z,4.32
2023-05-04T09:15:29.705Z,5.30
2023-05-04T09:18:01.524Z,4.82
2023-05-04T09:20:28.665Z,4.47
2023-05-04T09:23:07.695Z,3.88
2023-05-04T09:25:47.589Z,4.47
2023-05-04T09:28:15.740Z,3.90
2023-05-04T09:30:43.300Z,4.43
2023-05-04T09:33:13.898Z,4.53
2023-05-04T09:35:44.659Z,5.78
2023-05-04T09:38:11.536Z,6.40
2023-05-04T09:40:41.689Z,4.13
2023-05-04T09:43:09.613Z,5.10
2023-05-04T09:45:44.728Z,8.23
2023-05-04T09:48:25.673Z,8.60
2023-05-04T09:50:54.744Z,5.75
2023-05-04T09:53:29.689Z,8.15
2023-05-04T09:56:02.178Z,5.22
2023-05-04T09:58:31.648Z,7.60
2023-05-04T10:01:01.585Z,6.60
2023-05-04T10:03:29.365Z,6.70
2023-05-04T10:06:00.041Z,6.65
2023-05-04T10:08:29.107Z,8.93
2023-05-04T10:10:57.225Z,6.05
2023-05-04T10:13:25.336Z,6.57
2023-05-04T10:16:01.477Z,5.65
2023-05-04T10:19:20.916Z,7.90
2023-05-04T10:22:33.683Z,7.38
2023-05-04T10:25:36.548Z,8.40
2023-05-04T10:28:25.594Z,6.47
2023-05-04T10:30:59.107Z,7.57
2023-05-04T10:33:26.975Z,6.40
2023-05-04T10:35:56.707Z,6.28
2023-05-04T10:38:37.183Z,8.30
2023-05-04T10:41:18.607Z,6.60
2023-05-04T10:43:51.120Z,10.23
2023-05-04T10:46:22.075Z,7.60
2023-05-04T10:48:50.412Z,4.70
2023-05-04T10:51:22.861Z,4.90
2023-05-04T10:53:50.934Z,5.55
2023-05-04T10:56:28.534Z,5.70
2023-05-04T10:58:55.896Z,5.57
2023-05-04T11:01:23.176Z,6.65
2023-05-04T11:03:51.931Z,5.93
2023-05-04T11:06:24.042Z,4.43
2023-05-04T11:09:06.534Z,4.07
2023-05-04T11:11:37.763Z,6.43
2023-05-04T11:14:04.694Z,4.47
2023-05-04T11:16:31.732Z,4.82
2023-05-04T11:19:09.776Z,6.05
2023-05-04T11:21:38.952Z,5.13
2023-05-04T11:24:06.239Z,4.35
2023-05-04T11:26:33.523Z,6.93
2023-05-04T11:29:00.475Z,5.13
2023-05-04T11:31:27.403Z,12.80
2023-05-04T11:33:55.268Z,5.00
2023-05-04T11:36:22.904Z,3.92
2023-05-04T11:38:50.342Z,6.10
2023-05-04T11:41:17.377Z,4.38
2023-05-04T11:43:45.490Z,8.02
2023-05-04T11:46:13.366Z,4.57
2023-05-04T11:48:41.133Z,3.88
2023-05-04T11:51:08.093Z,5.95
2023-05-04T11:53:39.633Z,3.88
2023-05-04T11:56:11.297Z,5.75
2023-05-04T11:58:38.209Z,5.43
2023-05-04T12:01:05.497Z,4.07
2023-05-04T12:06:04.893Z,4.00
2023-05-04T12:08:42.194Z,3.72
2023-05-04T12:11:21.903Z,6.20
2023-05-04T12:13:50.035Z,4.40
2023-05-04T12:16:19.604Z,3.65
2023-05-04T12:18:48.235Z,4.32
2023-05-04T12:21:19.708Z,4.68
2023-05-04T12:23:47.655Z,3.40
2023-05-04T12:26:18.821Z,4.90
2023-05-04T12:28:47.982Z,6.07
2023-05-04T12:31:15.134Z,4.40
2023-05-04T12:33:41.972Z,4.38
2023-05-04T12:36:10.409Z,3.85
2023-05-04T12:38:40.578Z,6.38
2023-05-04T12:41:11.022Z,5.13
2023-05-04T12:43:38.613Z,4.15
2023-05-04T12:46:05.653Z,9.75
2023-05-04T12:48:33.183Z,3.75
2023-05-04T12:51:01.468Z,4.22
2023-05-04T12:53:32.089Z,2.60
2023-05-04T12:56:00.848Z,5.75
2023-05-04T12:58:28.502Z,3.45
2023-05-04T13:00:56.760Z,2.72
2023-05-04T13:03:24.321Z,2.88
2023-05-04T13:05:51.441Z,2.53
2023-05-04T13:08:19.973Z,4.68
2023-05-04T13:10:47.416Z,2.97
2023-05-04T13:13:17.339Z,3.65
2023-05-04T13:15:44.967Z,5.50
2023-05-04T13:18:13.061Z,2.33
2023-05-04T13:20:40.768Z,3.00
2023-05-04T13:23:07.727Z,4.63
2023-05-04T13:25:34.603Z,3.00
2023-05-04T13:28:01.545Z,3.35
2023-05-04T13:30:29.193Z,2.60
2023-05-04T13:32:56.201Z,2.95
2023-05-04T13:35:24.078Z,1.88
2023-05-04T13:37:51.682Z,6.57
2023-05-04T13:40:18.748Z,2.60
2023-05-04T13:42:45.719Z,3.47
2023-05-04T13:45:13.378Z,1.75
2023-05-04T13:47:40.854Z,4.28
2023-05-04T13:50:08.454Z,3.75
2023-05-04T13:52:36.349Z,2.28
2023-05-04T13:55:03.633Z,4.57
2023-05-04T13:57:30.969Z,2.75
2023-05-04T14:00:07.066Z,1.25
2023-05-04T14:02:35.336Z,1.60
2023-05-04T14:05:04.477Z,1.70
2023-05-04T14:07:31.767Z,2.53
2023-05-04T14:10:01.940Z,2.20
2023-05-04T14:12:29.101Z,1.75
2023-05-04T14:14:56.131Z,2.50
2023-05-04T14:17:23.115Z,2.08
2023-05-04T14:19:49.941Z,1.88
2023-05-04T14:22:16.865Z,2.17
2023-05-04T14:24:43.783Z,2.20
2023-05-04T14:27:10.798Z,2.75
2023-05-04T14:29:37.625Z,2.22
2023-05-04T14:32:04.654Z,4.85
2023-05-04T14:34:32.764Z,4.30
2023-05-04T14:36:59.609Z,1.50
2023-05-04T14:39:26.703Z,2.55
2023-05-04T14:41:54.178Z,2.67
2023-05-04T14:44:22.821Z,3.95
2023-05-04T14:46:49.768Z,1.92
2023-05-04T14:49:32.571Z,2.45
2023-05-04T14:52:04.056Z,5.07
2023-05-04T14:54:31.026Z,3.22
2023-05-04T14:56:59.174Z,1.77
2023-05-04T14:59:26.436Z,5.97
2023-05-04T15:01:55.394Z,1.98
2023-05-04T15:04:22.703Z,2.45
2023-05-04T15:06:49.938Z,1.90
2023-05-04T15:09:16.959Z,2.65
2023-05-04T15:12:59.535Z,3.22
2023-05-04T15:15:26.545Z,1.70
2023-05-04T15:17:53.608Z,4.00
2023-05-04T15:20:20.632Z,1.52
2023-05-04T15:22:49.139Z,2.55
2023-05-04T15:25:16.016Z,2.20
2023-05-04T15:27:44.030Z,1.48
2023-05-04T15:30:11.880Z,1.83
2023-05-04T15:32:38.835Z,3.45
2023-05-04T15:35:06.572Z,5.32
2023-05-04T15:37:33.913Z,3.45
2023-05-04T15:40:02.462Z,5.65
2023-05-04T15:42:29.818Z,2.47
2023-05-04T15:44:56.814Z,3.00
2023-05-04T15:47:24.021Z,2.92
2023-05-04T15:49:50.926Z,3.03
2023-05-04T15:52:17.765Z,2.42
2023-05-04T15:54:44.591Z,2.80
2023-05-04T15:57:11.636Z,3.20
2023-05-04T15:59:38.676Z,4.97
2023-05-04T16:02:06.261Z,7.85
2023-05-04T16:04:33.500Z,1.40
2023-05-04T16:07:00.482Z,1.98
2023-05-04T16:09:28.426Z,4.63
2023-05-04T16:11:55.329Z,23.70
2023-05-04T16:14:22.292Z,1.98
2023-05-04T16:16:49.216Z,4.20
2023-05-04T16:19:16.238Z,2.17
2023-05-04T16:21:43.131Z,5.18
2023-05-04T16:24:10.328Z,2.60
2023-05-04T16:26:37.192Z,2.78
2023-05-04T16:29:04.129Z,2.40
2023-05-04T16:31:31.120Z,4.22
2023-05-04T16:33:58.238Z,2.60
2023-05-04T16:36:25.082Z,2.40
2023-05-04T16:38:52.418Z,3.35
2023-05-04T16:41:19.311Z,2.13
2023-05-04T16:43:46.339Z,4.57
2023-05-04T16:46:13.208Z,1.85
2023-05-04T16:48:40.314Z,2.53
2023-05-04T16:51:08.447Z,2.15
2023-05-04T16:53:35.796Z,5.07
2023-05-04T16:56:02.807Z,1.23
2023-05-04T16:58:29.713Z,3.83
2023-05-04T17:00:58.405Z,2.60
2023-05-04T17:03:25.434Z,2.45
2023-05-04T17:05:52.924Z,2.60
2023-05-04T17:08:19.879Z,3.20
2023-05-04T17:10:46.733Z,2.10
2023-05-04T17:13:13.808Z,3.55
2023-05-04T17:15:40.776Z,2.63
2023-05-04T17:18:07.766Z,3.20
2023-05-04T17:20:34.641Z,2.72
2023-05-04T17:23:01.949Z,3.83
2023-05-04T17:25:29.102Z,6.80
2023-05-04T17:27:55.999Z,4.03
2023-05-04T17:30:23.349Z,2.05
2023-05-04T17:32:51.333Z,2.67
2023-05-04T17:35:25.218Z,3.17
2023-05-04T17:37:57.899Z,3.13
2023-05-04T17:40:27.705Z,5.10
2023-05-04T17:42:55.139Z,2.97
2023-05-04T17:45:22.183Z,1.88
2023-05-04T17:47:51.362Z,2.28
2023-05-04T17:50:18.463Z,2.03
2023-05-04T17:52:45.278Z,2.30
2023-05-04T17:55:12.312Z,4.07
2023-05-04T17:57:39.183Z,3.75
2023-05-04T18:00:07.804Z,1.92
2023-05-04T18:02:35.171Z,2.40
2023-05-04T18:05:03.130Z,2.83
2023-05-04T18:07:30.050Z,3.55
2023-05-04T18:09:57.055Z,4.63
2023-05-04T18:12:23.972Z,2.35
2023-05-04T18:14:51.447Z,2.45
2023-05-04T18:17:18.363Z,2.55
2023-05-04T18:19:45.202Z,3.67
2023-05-04T18:22:12.126Z,5.22
2023-05-04T18:24:39.019Z,2.20
2023-05-04T18:27:06.258Z,4.30
2023-05-04T18:29:33.169Z,2.85
2023-05-04T18:32:01.498Z,4.25
2023-05-04T18:34:28.466Z,2.85
2023-05-04T18:36:55.338Z,2.00
2023-05-04T18:39:22.220Z,4.65
2023-05-04T18:41:49.323Z,3.17
2023-05-04T18:44:16.420Z,2.05
2023-05-04T18:46:43.415Z,3.03
2023-05-04T18:49:10.298Z,2.95
2023-05-04T18:51:37.186Z,3.53
2023-05-04T18:54:04.385Z,3.13
2023-05-04T18:56:31.378Z,3.70
2023-05-04T18:58:58.285Z,5.80
2023-05-04T19:01:25.244Z,2.35
2023-05-04T19:03:52.283Z,3.20
2023-05-04T19:06:19.248Z,3.38
2023-05-04T19:08:46.089Z,3.33
2023-05-04T19:11:13.308Z,2.30
2023-05-04T19:13:40.183Z,4.35
2023-05-04T19:16:12.250Z,3.08
2023-05-04T19:18:39.309Z,3.00
2023-05-04T19:21:06.730Z,2.42
2023-05-04T19:23:33.585Z,2.42
2023-05-04T19:26:00.497Z,3.13
2023-05-04T19:28:27.381Z,3.47
2023-05-04T19:30:54.360Z,4.97
2023-05-04T19:33:22.290Z,6.97
2023-05-04T19:35:50.198Z,3.70
2023-05-04T19:38:17.558Z,4.85
2023-05-04T19:40:44.399Z,3.53
2023-05-04T19:43:11.296Z,2.95
2023-05-04T19:45:39.338Z,2.75
2023-05-04T19:48:06.297Z,3.72
2023-05-04T19:50:33.392Z,4.45
2023-05-04T19:53:00.212Z,3.33
2023-05-04T19:55:27.169Z,3.50
2023-05-04T19:57:54.035Z,4.05
2023-05-04T20:00:20.967Z,2.45
2023-05-04T20:02:47.940Z,3.33
2023-05-04T20:05:14.969Z,9.13
2023-05-04T20:07:42.170Z,2.33
2023-05-04T20:10:09.437Z,3.40
2023-05-04T20:12:36.505Z,3.17
2023-05-04T20:15:06.618Z,3.08
2023-05-04T20:17:33.582Z,3.85
2023-05-04T20:20:02.603Z,3.20
2023-05-04T20:22:29.786Z,3.67
2023-05-04T20:24:57.230Z,7.22
2023-05-04T20:27:27.012Z,2.60
2023-05-04T20:29:53.865Z,5.32
2023-05-04T20:32:20.887Z,3.53
2023-05-04T20:34:47.922Z,3.35
2023-05-04T20:37:14.964Z,6.55
2023-05-04T20:39:41.900Z,5.00
2023-05-04T20:42:08.754Z,4.57
2023-05-04T20:44:35.626Z,5.65
2023-05-04T20:47:02.752Z,2.83
2023-05-04T20:49:29.660Z,3.25
2023-05-04T20:51:56.508Z,3.75
2023-05-04T20:54:24.317Z,3.67
2023-05-04T20:56:51.191Z,6.50
2023-05-04T20:59:18.079Z,3.28
2023-05-04T21:01:45.071Z,3.88
2023-05-04T21:04:12.059Z,5.10
2023-05-04T21:06:38.896Z,3.83
2023-05-04T21:09:05.850Z,3.08
2023-05-04T21:11:32.718Z,3.92
2023-05-04T21:13:59.650Z,3.97
2023-05-04T21:16:26.570Z,3.20
2023-05-04T21:18:53.405Z,3.83
2023-05-04T21:21:20.225Z,3.03
2023-05-04T21:23:47.078Z,4.30
2023-05-04T21:26:13.971Z,2.83
2023-05-04T21:28:40.899Z,3.67
2023-05-04T21:31:08.620Z,3.15
2023-05-04T21:33:36.395Z,7.22
2023-05-04T21:36:14.337Z,3.13
2023-05-04T21:38:41.695Z,4.35
2023-05-04T21:41:16.180Z,3.00
2023-05-04T21:43:43.804Z,5.32
2023-05-04T21:46:12.206Z,4.05
2023-05-04T21:48:39.968Z,4.47
2023-05-04T21:51:06.907Z,6.32
2023-05-04T21:53:33.937Z,3.15
2023-05-04T21:56:08.539Z,5.03
2023-05-04T21:58:37.460Z,5.25
2023-05-04T22:01:04.313Z,5.32
2023-05-04T22:03:31.944Z,5.18
2023-05-04T22:05:59.131Z,5.68
2023-05-04T22:08:27.021Z,3.80
2023-05-04T22:10:56.214Z,10.15
2023-05-04T22:13:23.419Z,4.72
2023-05-04T22:15:50.979Z,5.13
2023-05-04T22:18:18.263Z,3.75
2023-05-04T22:20:45.582Z,4.43
2023-05-04T22:23:13.433Z,4.00
2023-05-04T22:25:40.344Z,3.80
2023-05-04T22:28:07.351Z,4.05
2023-05-04T22:30:34.384Z,4.43
2023-05-04T22:33:01.579Z,3.20
2023-05-04T22:35:28.458Z,6.15
2023-05-04T22:37:55.381Z,6.10
2023-05-04T22:40:22.674Z,4.28
2023-05-04T22:42:49.609Z,3.83
2023-05-04T22:45:18.421Z,3.00
2023-05-04T22:47:47.030Z,5.70
2023-05-04T22:50:15.027Z,8.05
2023-05-04T22:52:42.099Z,4.93
2023-05-04T22:55:09.536Z,4.63
2023-05-04T22:57:36.920Z,3.78
2023-05-04T23:00:08.238Z,3.67
2023-05-04T23:02:36.118Z,4.00
2023-05-04T23:05:04.135Z,4.43
2023-05-04T23:07:31.292Z,5.28
2023-05-04T23:09:58.204Z,4.10
2023-05-04T23:12:27.137Z,3.38
2023-05-04T23:14:54.833Z,3.17
2023-05-04T23:17:22.231Z,5.45
2023-05-04T23:19:49.168Z,5.95
2023-05-04T23:22:16.168Z,4.32
2023-05-04T23:24:43.312Z,4.72
2023-05-04T23:27:11.431Z,6.30
2023-05-04T23:29:38.508Z,5.22
2023-05-04T23:32:06.069Z,4.78
2023-05-04T23:34:32.984Z,5.07
2023-05-04T23:36:59.815Z,4.65
2023-05-04T23:39:26.679Z,4.25
2023-05-04T23:41:54.316Z,6.68
2023-05-04T23:44:21.486Z,5.65
2023-05-04T23:46:48.401Z,5.32
2023-05-04T23:49:16.573Z,4.40
2023-05-04T23:51:43.640Z,4.03
2023-05-04T23:54:10.755Z,3.53
2023-05-04T23:56:37.797Z,4.57
2023-05-04T23:59:04.681Z,4.55
